sensor_id;sensor_type;location;lat;lon;timestamp;temperature;humidity
51815;DHT22;37874;53.158;6.766;2022-12-10T00:20:28;16.90;55.70
51815;DHT22;37874;53.158;6.766;2022-12-10T00:22:54;16.90;55.80
51815;DHT22;37874;53.158;6.766;2022-12-10T00:25:19;16.90;55.80
51815;DHT22;37874;53.158;6.766;2022-12-10T00:27:45;16.90;55.70
51815;DHT22;37874;53.158;6.766;2022-12-10T00:30:11;16.90;55.70
51815;DHT22;37874;53.158;6.766;2022-12-10T00:32:36;16.90;55.60
51815;DHT22;37874;53.158;6.766;2022-12-10T00:35:02;16.90;55.60
51815;DHT22;37874;53.158;6.766;2022-12-10T00:37:28;16.90;55.60
51815;DHT22;37874;53.158;6.766;2022-12-10T00:39:53;16.90;55.70
51815;DHT22;37874;53.158;6.766;2022-12-10T00:42:19;16.90;56.10
51815;DHT22;37874;53.158;6.766;2022-12-10T00:44:44;16.90;55.70
51815;DHT22;37874;53.158;6.766;2022-12-10T00:47:10;16.90;55.60
51815;DHT22;37874;53.158;6.766;2022-12-10T00:49:35;16.80;55.60
51815;DHT22;37874;53.158;6.766;2022-12-10T00:52:01;16.90;55.70
51815;DHT22;37874;53.158;6.766;2022-12-10T00:54:26;16.90;55.60
51815;DHT22;37874;53.158;6.766;2022-12-10T00:56:52;16.90;55.60
51815;DHT22;37874;53.158;6.766;2022-12-10T00:59:18;16.90;55.60
51815;DHT22;37874;53.158;6.766;2022-12-10T01:01:44;16.90;55.60
51815;DHT22;37874;53.158;6.766;2022-12-10T01:04:13;16.90;55.60
51815;DHT22;37874;53.158;6.766;2022-12-10T01:06:44;16.90;55.70
51815;DHT22;37874;53.158;6.766;2022-12-10T01:09:13;16.90;55.70
51815;DHT22;37874;53.158;6.766;2022-12-10T01:11:40;16.90;55.60
51815;DHT22;37874;53.158;6.766;2022-12-10T01:14:10;16.90;55.60
51815;DHT22;37874;53.158;6.766;2022-12-10T01:16:36;16.90;55.60
51815;DHT22;37874;53.158;6.766;2022-12-10T01:19:02;16.80;55.50
51815;DHT22;37874;53.158;6.766;2022-12-10T01:21:29;16.80;55.50
51815;DHT22;37874;53.158;6.766;2022-12-10T01:23:56;16.80;55.40
51815;DHT22;37874;53.158;6.766;2022-12-10T01:26:24;16.80;55.50
51815;DHT22;37874;53.158;6.766;2022-12-10T01:28:51;16.80;55.40
51815;DHT22;37874;53.158;6.766;2022-12-10T01:31:28;16.80;55.40
51815;DHT22;37874;53.158;6.766;2022-12-10T01:33:54;16.80;55.50
51815;DHT22;37874;53.158;6.766;2022-12-10T01:36:29;16.70;55.50
51815;DHT22;37874;53.158;6.766;2022-12-10T01:38:55;16.80;55.50
51815;DHT22;37874;53.158;6.766;2022-12-10T01:41:30;16.80;55.50
51815;DHT22;37874;53.158;6.766;2022-12-10T01:44:03;16.80;55.60
51815;DHT22;37874;53.158;6.766;2022-12-10T01:46:37;16.70;55.50
51815;DHT22;37874;53.158;6.766;2022-12-10T01:49:10;16.80;55.50
51815;DHT22;37874;53.158;6.766;2022-12-10T01:51:39;16.70;55.40
51815;DHT22;37874;53.158;6.766;2022-12-10T01:54:08;16.70;55.30
51815;DHT22;37874;53.158;6.766;2022-12-10T01:56:37;16.80;55.40
51815;DHT22;37874;53.158;6.766;2022-12-10T01:59:03;16.80;55.30
51815;DHT22;37874;53.158;6.766;2022-12-10T02:01:53;16.80;55.30
51815;DHT22;37874;53.158;6.766;2022-12-10T02:04:55;16.80;55.30
51815;DHT22;37874;53.158;6.766;2022-12-10T02:13:15;16.80;55.30
51815;DHT22;37874;53.158;6.766;2022-12-10T02:15:58;16.80;55.20
51815;DHT22;37874;53.158;6.766;2022-12-10T02:18:30;16.80;55.30
51815;DHT22;37874;53.158;6.766;2022-12-10T02:21:02;16.80;55.20
51815;DHT22;37874;53.158;6.766;2022-12-10T02:23:45;16.80;55.10
51815;DHT22;37874;53.158;6.766;2022-12-10T02:31:44;16.70;55.20
51815;DHT22;37874;53.158;6.766;2022-12-10T02:34:13;16.70;55.20
51815;DHT22;37874;53.158;6.766;2022-12-10T02:36:42;16.70;55.10
51815;DHT22;37874;53.158;6.766;2022-12-10T02:39:12;16.70;55.10
51815;DHT22;37874;53.158;6.766;2022-12-10T02:41:42;16.80;55.20
51815;DHT22;37874;53.158;6.766;2022-12-10T02:44:11;16.70;55.20
51815;DHT22;37874;53.158;6.766;2022-12-10T02:46:43;16.70;55.10
51815;DHT22;37874;53.158;6.766;2022-12-10T02:49:12;16.70;55.20
51815;DHT22;37874;53.158;6.766;2022-12-10T02:51:39;16.70;55.10
51815;DHT22;37874;53.158;6.766;2022-12-10T02:54:31;16.80;55.20
51815;DHT22;37874;53.158;6.766;2022-12-10T02:57:00;16.80;55.10
51815;DHT22;37874;53.158;6.766;2022-12-10T03:02:38;16.70;55.00
51815;DHT22;37874;53.158;6.766;2022-12-10T03:05:23;16.80;55.10
51815;DHT22;37874;53.158;6.766;2022-12-10T03:13:16;16.80;55.00
51815;DHT22;37874;53.158;6.766;2022-12-10T03:15:44;16.70;55.00
51815;DHT22;37874;53.158;6.766;2022-12-10T03:18:12;16.80;55.00
51815;DHT22;37874;53.158;6.766;2022-12-10T03:20:43;16.70;54.80
51815;DHT22;37874;53.158;6.766;2022-12-10T03:23:12;16.70;54.90
51815;DHT22;37874;53.158;6.766;2022-12-10T03:25:40;16.70;54.90
51815;DHT22;37874;53.158;6.766;2022-12-10T03:28:07;16.80;55.00
51815;DHT22;37874;53.158;6.766;2022-12-10T03:30:36;16.70;55.00
51815;DHT22;37874;53.158;6.766;2022-12-10T03:33:04;16.70;55.00
51815;DHT22;37874;53.158;6.766;2022-12-10T03:35:30;16.80;55.00
51815;DHT22;37874;53.158;6.766;2022-12-10T03:37:57;16.80;55.00
51815;DHT22;37874;53.158;6.766;2022-12-10T03:40:24;16.70;54.80
51815;DHT22;37874;53.158;6.766;2022-12-10T03:42:50;16.70;54.80
51815;DHT22;37874;53.158;6.766;2022-12-10T03:45:16;16.70;54.90
51815;DHT22;37874;53.158;6.766;2022-12-10T03:47:43;16.70;54.80
51815;DHT22;37874;53.158;6.766;2022-12-10T03:50:10;16.70;54.90
51815;DHT22;37874;53.158;6.766;2022-12-10T03:52:36;16.70;54.80
51815;DHT22;37874;53.158;6.766;2022-12-10T03:55:02;16.70;54.80
51815;DHT22;37874;53.158;6.766;2022-12-10T03:57:28;16.70;54.80
51815;DHT22;37874;53.158;6.766;2022-12-10T03:59:54;16.70;54.80
51815;DHT22;37874;53.158;6.766;2022-12-10T04:02:20;16.70;54.90
51815;DHT22;37874;53.158;6.766;2022-12-10T04:04:46;16.70;54.80
51815;DHT22;37874;53.158;6.766;2022-12-10T04:07:12;16.70;54.80
51815;DHT22;37874;53.158;6.766;2022-12-10T04:09:38;16.70;54.80
51815;DHT22;37874;53.158;6.766;2022-12-10T04:12:04;16.70;54.80
51815;DHT22;37874;53.158;6.766;2022-12-10T04:14:30;16.70;54.80
51815;DHT22;37874;53.158;6.766;2022-12-10T04:17:15;16.70;54.80
51815;DHT22;37874;53.158;6.766;2022-12-10T04:19:40;16.70;54.80
51815;DHT22;37874;53.158;6.766;2022-12-10T04:22:09;16.70;54.70
51815;DHT22;37874;53.158;6.766;2022-12-10T04:24:53;16.60;54.70
51815;DHT22;37874;53.158;6.766;2022-12-10T04:27:51;16.70;54.70
51815;DHT22;37874;53.158;6.766;2022-12-10T04:30:17;16.70;54.70
51815;DHT22;37874;53.158;6.766;2022-12-10T04:32:44;16.70;54.70
51815;DHT22;37874;53.158;6.766;2022-12-10T04:35:10;16.70;54.60
51815;DHT22;37874;53.158;6.766;2022-12-10T04:37:36;16.70;54.70
51815;DHT22;37874;53.158;6.766;2022-12-10T04:40:03;16.70;54.70
51815;DHT22;37874;53.158;6.766;2022-12-10T04:42:28;16.70;54.70
51815;DHT22;37874;53.158;6.766;2022-12-10T04:44:54;16.60;54.70
51815;DHT22;37874;53.158;6.766;2022-12-10T04:47:20;16.60;54.70
51815;DHT22;37874;53.158;6.766;2022-12-10T04:49:46;16.70;54.60
51815;DHT22;37874;53.158;6.766;2022-12-10T04:52:13;16.70;54.70
51815;DHT22;37874;53.158;6.766;2022-12-10T04:54:40;16.60;54.70
51815;DHT22;37874;53.158;6.766;2022-12-10T04:57:07;16.60;54.50
51815;DHT22;37874;53.158;6.766;2022-12-10T04:59:33;16.70;54.70
51815;DHT22;37874;53.158;6.766;2022-12-10T05:02:00;16.70;54.60
51815;DHT22;37874;53.158;6.766;2022-12-10T05:04:26;16.60;54.60
51815;DHT22;37874;53.158;6.766;2022-12-10T05:06:52;16.60;54.60
51815;DHT22;37874;53.158;6.766;2022-12-10T05:09:18;16.60;54.70
51815;DHT22;37874;53.158;6.766;2022-12-10T05:11:44;16.60;54.60
51815;DHT22;37874;53.158;6.766;2022-12-10T05:14:14;16.60;54.60
51815;DHT22;37874;53.158;6.766;2022-12-10T05:16:40;16.70;54.70
51815;DHT22;37874;53.158;6.766;2022-12-10T05:19:06;16.60;54.60
51815;DHT22;37874;53.158;6.766;2022-12-10T05:21:32;16.60;54.50
51815;DHT22;37874;53.158;6.766;2022-12-10T05:24:19;16.60;54.60
51815;DHT22;37874;53.158;6.766;2022-12-10T05:26:45;16.60;54.60
51815;DHT22;37874;53.158;6.766;2022-12-10T05:29:12;16.60;54.70
51815;DHT22;37874;53.158;6.766;2022-12-10T05:31:41;16.60;54.70
51815;DHT22;37874;53.158;6.766;2022-12-10T05:34:08;16.60;54.70
51815;DHT22;37874;53.158;6.766;2022-12-10T05:36:36;16.60;54.80
51815;DHT22;37874;53.158;6.766;2022-12-10T05:39:02;16.60;54.70
51815;DHT22;37874;53.158;6.766;2022-12-10T05:41:30;16.60;54.70
51815;DHT22;37874;53.158;6.766;2022-12-10T05:43:57;16.60;54.70
51815;DHT22;37874;53.158;6.766;2022-12-10T05:46:26;16.60;54.70
51815;DHT22;37874;53.158;6.766;2022-12-10T05:48:53;16.60;54.70
51815;DHT22;37874;53.158;6.766;2022-12-10T05:51:21;16.60;54.60
51815;DHT22;37874;53.158;6.766;2022-12-10T05:53:48;16.60;54.60
51815;DHT22;37874;53.158;6.766;2022-12-10T05:56:16;16.60;54.60
51815;DHT22;37874;53.158;6.766;2022-12-10T05:58:45;16.60;54.60
51815;DHT22;37874;53.158;6.766;2022-12-10T06:01:13;16.60;54.50
51815;DHT22;37874;53.158;6.766;2022-12-10T06:03:40;16.60;54.50
51815;DHT22;37874;53.158;6.766;2022-12-10T06:06:06;16.60;54.50
51815;DHT22;37874;53.158;6.766;2022-12-10T06:08:33;16.60;54.40
51815;DHT22;37874;53.158;6.766;2022-12-10T06:11:04;16.60;54.40
51815;DHT22;37874;53.158;6.766;2022-12-10T06:13:30;16.60;54.40
51815;DHT22;37874;53.158;6.766;2022-12-10T06:15:56;16.60;54.50
51815;DHT22;37874;53.158;6.766;2022-12-10T06:18:22;16.60;54.50
51815;DHT22;37874;53.158;6.766;2022-12-10T06:20:48;16.60;54.40
51815;DHT22;37874;53.158;6.766;2022-12-10T06:23:15;16.60;54.40
51815;DHT22;37874;53.158;6.766;2022-12-10T06:25:41;16.60;54.40
51815;DHT22;37874;53.158;6.766;2022-12-10T06:28:07;16.60;54.30
51815;DHT22;37874;53.158;6.766;2022-12-10T06:30:34;16.60;54.40
51815;DHT22;37874;53.158;6.766;2022-12-10T06:33:03;16.60;54.30
51815;DHT22;37874;53.158;6.766;2022-12-10T06:35:29;16.60;54.30
51815;DHT22;37874;53.158;6.766;2022-12-10T06:37:55;16.60;54.40
51815;DHT22;37874;53.158;6.766;2022-12-10T06:40:21;16.60;54.40
51815;DHT22;37874;53.158;6.766;2022-12-10T06:42:47;16.60;54.30
51815;DHT22;37874;53.158;6.766;2022-12-10T06:45:12;16.60;54.30
51815;DHT22;37874;53.158;6.766;2022-12-10T06:47:41;16.60;54.20
51815;DHT22;37874;53.158;6.766;2022-12-10T06:50:08;16.30;54.10
51815;DHT22;37874;53.158;6.766;2022-12-10T06:52:33;16.60;54.20
51815;DHT22;37874;53.158;6.766;2022-12-10T06:54:59;16.60;54.20
51815;DHT22;37874;53.158;6.766;2022-12-10T06:57:25;16.60;54.30
51815;DHT22;37874;53.158;6.766;2022-12-10T06:59:51;16.60;54.20
51815;DHT22;37874;53.158;6.766;2022-12-10T07:02:17;16.60;54.20
51815;DHT22;37874;53.158;6.766;2022-12-10T07:04:43;16.60;54.20
51815;DHT22;37874;53.158;6.766;2022-12-10T07:07:09;16.60;54.10
51815;DHT22;37874;53.158;6.766;2022-12-10T07:09:35;16.60;54.20
51815;DHT22;37874;53.158;6.766;2022-12-10T07:12:01;16.60;54.10
51815;DHT22;37874;53.158;6.766;2022-12-10T07:14:27;16.60;54.20
51815;DHT22;37874;53.158;6.766;2022-12-10T07:16:53;16.60;54.20
51815;DHT22;37874;53.158;6.766;2022-12-10T07:19:19;16.60;54.30
51815;DHT22;37874;53.158;6.766;2022-12-10T07:21:45;16.60;54.50
51815;DHT22;37874;53.158;6.766;2022-12-10T07:24:14;16.60;54.70
51815;DHT22;37874;53.158;6.766;2022-12-10T07:26:42;16.60;54.90
51815;DHT22;37874;53.158;6.766;2022-12-10T07:29:14;16.60;55.10
51815;DHT22;37874;53.158;6.766;2022-12-10T07:31:41;16.60;55.10
51815;DHT22;37874;53.158;6.766;2022-12-10T07:34:07;16.60;55.20
51815;DHT22;37874;53.158;6.766;2022-12-10T07:36:33;16.60;55.30
51815;DHT22;37874;53.158;6.766;2022-12-10T07:38:59;16.60;55.30
51815;DHT22;37874;53.158;6.766;2022-12-10T07:41:25;16.60;55.30
51815;DHT22;37874;53.158;6.766;2022-12-10T07:43:51;16.60;55.30
51815;DHT22;37874;53.158;6.766;2022-12-10T07:46:24;16.60;55.10
51815;DHT22;37874;53.158;6.766;2022-12-10T07:51:35;16.70;55.30
51815;DHT22;37874;53.158;6.766;2022-12-10T08:00:11;16.70;55.20
51815;DHT22;37874;53.158;6.766;2022-12-10T08:09:02;16.70;55.00
51815;DHT22;37874;53.158;6.766;2022-12-10T08:18:15;16.80;55.10
51815;DHT22;37874;53.158;6.766;2022-12-10T08:27:25;16.90;55.20
51815;DHT22;37874;53.158;6.766;2022-12-10T08:29:51;16.90;55.20
51815;DHT22;37874;53.158;6.766;2022-12-10T08:50:00;17.10;55.10
51815;DHT22;37874;53.158;6.766;2022-12-10T08:53:04;17.10;54.90
51815;DHT22;37874;53.158;6.766;2022-12-10T08:56:07;17.10;55.00
51815;DHT22;37874;53.158;6.766;2022-12-10T09:11:24;17.10;55.00
51815;DHT22;37874;53.158;6.766;2022-12-10T09:19:57;17.10;55.10
51815;DHT22;37874;53.158;6.766;2022-12-10T09:52:48;17.10;54.90
51815;DHT22;37874;53.158;6.766;2022-12-10T09:55:21;17.20;54.80
51815;DHT22;37874;53.158;6.766;2022-12-10T09:57:51;17.20;54.50
51815;DHT22;37874;53.158;6.766;2022-12-10T10:00:25;17.10;54.80
51815;DHT22;37874;53.158;6.766;2022-12-10T10:02:57;17.20;54.70
51815;DHT22;37874;53.158;6.766;2022-12-10T10:05:39;17.20;54.90
51815;DHT22;37874;53.158;6.766;2022-12-10T10:10:40;17.20;55.00
51815;DHT22;37874;53.158;6.766;2022-12-10T10:15:35;17.20;54.90
51815;DHT22;37874;53.158;6.766;2022-12-10T10:18:33;17.20;55.00
51815;DHT22;37874;53.158;6.766;2022-12-10T10:21:05;17.20;55.20
51815;DHT22;37874;53.158;6.766;2022-12-10T10:23:33;17.20;55.00
51815;DHT22;37874;53.158;6.766;2022-12-10T10:25:59;17.20;55.00
51815;DHT22;37874;53.158;6.766;2022-12-10T10:28:25;17.20;55.00
51815;DHT22;37874;53.158;6.766;2022-12-10T10:30:52;17.20;54.70
51815;DHT22;37874;53.158;6.766;2022-12-10T10:33:19;17.20;55.00
51815;DHT22;37874;53.158;6.766;2022-12-10T10:35:53;17.20;55.20
51815;DHT22;37874;53.158;6.766;2022-12-10T10:38:37;17.20;55.10
51815;DHT22;37874;53.158;6.766;2022-12-10T10:41:04;17.20;55.10
51815;DHT22;37874;53.158;6.766;2022-12-10T10:46:04;17.30;55.10
51815;DHT22;37874;53.158;6.766;2022-12-10T10:48:34;17.30;55.10
51815;DHT22;37874;53.158;6.766;2022-12-10T10:53:45;17.20;55.00
51815;DHT22;37874;53.158;6.766;2022-12-10T10:56:15;17.30;55.10
51815;DHT22;37874;53.158;6.766;2022-12-10T10:58:56;17.30;54.80
51815;DHT22;37874;53.158;6.766;2022-12-10T11:01:43;17.30;54.90
51815;DHT22;37874;53.158;6.766;2022-12-10T11:04:09;17.30;54.30
51815;DHT22;37874;53.158;6.766;2022-12-10T11:06:38;17.30;54.60
51815;DHT22;37874;53.158;6.766;2022-12-10T11:09:05;17.30;54.80
51815;DHT22;37874;53.158;6.766;2022-12-10T11:11:40;17.40;54.70
51815;DHT22;37874;53.158;6.766;2022-12-10T11:14:23;17.30;54.60
51815;DHT22;37874;53.158;6.766;2022-12-10T11:16:50;17.30;54.50
51815;DHT22;37874;53.158;6.766;2022-12-10T11:19:23;17.40;55.10
51815;DHT22;37874;53.158;6.766;2022-12-10T11:21:52;17.40;55.10
51815;DHT22;37874;53.158;6.766;2022-12-10T11:24:20;17.40;54.90
51815;DHT22;37874;53.158;6.766;2022-12-10T11:27:11;17.40;55.10
51815;DHT22;37874;53.158;6.766;2022-12-10T11:30:03;17.40;55.10
51815;DHT22;37874;53.158;6.766;2022-12-10T11:38:31;17.40;54.90
51815;DHT22;37874;53.158;6.766;2022-12-10T11:58:19;17.50;55.00
51815;DHT22;37874;53.158;6.766;2022-12-10T12:00:57;17.50;55.00
51815;DHT22;37874;53.158;6.766;2022-12-10T12:15:01;17.60;55.10
51815;DHT22;37874;53.158;6.766;2022-12-10T12:17:34;17.60;55.00
51815;DHT22;37874;53.158;6.766;2022-12-10T12:20:22;17.60;55.20
51815;DHT22;37874;53.158;6.766;2022-12-10T12:23:00;17.60;55.00
51815;DHT22;37874;53.158;6.766;2022-12-10T12:25:35;17.60;55.10
51815;DHT22;37874;53.158;6.766;2022-12-10T12:30:31;17.60;55.00
51815;DHT22;37874;53.158;6.766;2022-12-10T12:33:05;17.60;55.00
51815;DHT22;37874;53.158;6.766;2022-12-10T12:35:51;17.70;55.40
51815;DHT22;37874;53.158;6.766;2022-12-10T12:53:44;17.70;55.10
51815;DHT22;37874;53.158;6.766;2022-12-10T13:05:41;17.70;54.90
51815;DHT22;37874;53.158;6.766;2022-12-10T13:17:34;17.70;55.80
51815;DHT22;37874;53.158;6.766;2022-12-10T13:27:14;17.70;55.10
51815;DHT22;37874;53.158;6.766;2022-12-10T13:39:43;17.60;55.20
51815;DHT22;37874;53.158;6.766;2022-12-10T13:42:31;17.60;55.30
51815;DHT22;37874;53.158;6.766;2022-12-10T14:01:20;17.60;55.40
51815;DHT22;37874;53.158;6.766;2022-12-10T14:07:11;17.60;55.30
51815;DHT22;37874;53.158;6.766;2022-12-10T14:09:58;17.60;55.10
51815;DHT22;37874;53.158;6.766;2022-12-10T14:12:37;17.60;54.90
51815;DHT22;37874;53.158;6.766;2022-12-10T14:15:24;17.60;55.40
51815;DHT22;37874;53.158;6.766;2022-12-10T14:21:38;17.60;55.40
51815;DHT22;37874;53.158;6.766;2022-12-10T14:24:26;17.60;55.00
51815;DHT22;37874;53.158;6.766;2022-12-10T14:30:11;17.60;54.70
51815;DHT22;37874;53.158;6.766;2022-12-10T14:33:18;17.60;55.30
51815;DHT22;37874;53.158;6.766;2022-12-10T14:36:24;17.60;55.40
51815;DHT22;37874;53.158;6.766;2022-12-10T14:42:14;17.60;55.00
51815;DHT22;37874;53.158;6.766;2022-12-10T14:44:41;17.70;55.00
51815;DHT22;37874;53.158;6.766;2022-12-10T14:47:19;17.70;55.30
51815;DHT22;37874;53.158;6.766;2022-12-10T14:49:50;17.70;55.30
51815;DHT22;37874;53.158;6.766;2022-12-10T14:52:20;17.70;55.10
51815;DHT22;37874;53.158;6.766;2022-12-10T14:54:47;17.70;55.30
51815;DHT22;37874;53.158;6.766;2022-12-10T14:57:30;17.60;54.70
51815;DHT22;37874;53.158;6.766;2022-12-10T15:00:07;17.70;55.10
51815;DHT22;37874;53.158;6.766;2022-12-10T15:02:37;17.70;54.90
51815;DHT22;37874;53.158;6.766;2022-12-10T15:05:19;17.70;55.30
51815;DHT22;37874;53.158;6.766;2022-12-10T15:10:43;17.70;55.40
51815;DHT22;37874;53.158;6.766;2022-12-10T15:13:35;17.70;55.20
51815;DHT22;37874;53.158;6.766;2022-12-10T15:16:03;17.70;55.10
51815;DHT22;37874;53.158;6.766;2022-12-10T15:18:37;17.70;54.40
51815;DHT22;37874;53.158;6.766;2022-12-10T15:21:22;17.70;54.70
51815;DHT22;37874;53.158;6.766;2022-12-10T15:23:48;17.70;55.20
51815;DHT22;37874;53.158;6.766;2022-12-10T15:26:18;17.70;55.40
51815;DHT22;37874;53.158;6.766;2022-12-10T15:28:47;17.70;55.50
51815;DHT22;37874;53.158;6.766;2022-12-10T15:33:57;17.70;55.80
51815;DHT22;37874;53.158;6.766;2022-12-10T15:36:47;17.70;55.10
51815;DHT22;37874;53.158;6.766;2022-12-10T15:39:56;17.70;55.10
51815;DHT22;37874;53.158;6.766;2022-12-10T15:42:40;17.70;55.10
51815;DHT22;37874;53.158;6.766;2022-12-10T15:45:25;17.70;55.30
51815;DHT22;37874;53.158;6.766;2022-12-10T15:47:55;17.70;55.30
51815;DHT22;37874;53.158;6.766;2022-12-10T15:50:23;17.70;55.40
51815;DHT22;37874;53.158;6.766;2022-12-10T15:52:49;17.80;55.40
51815;DHT22;37874;53.158;6.766;2022-12-10T15:55:16;17.70;55.20
51815;DHT22;37874;53.158;6.766;2022-12-10T15:57:42;17.80;55.20
51815;DHT22;37874;53.158;6.766;2022-12-10T16:00:19;17.80;55.20
51815;DHT22;37874;53.158;6.766;2022-12-10T16:02:58;17.70;55.40
51815;DHT22;37874;53.158;6.766;2022-12-10T16:05:30;17.80;55.50
51815;DHT22;37874;53.158;6.766;2022-12-10T16:08:25;17.80;55.40
51815;DHT22;37874;53.158;6.766;2022-12-10T16:10:55;17.80;55.40
51815;DHT22;37874;53.158;6.766;2022-12-10T16:13:31;17.80;55.40
51815;DHT22;37874;53.158;6.766;2022-12-10T16:16:06;17.80;55.40
51815;DHT22;37874;53.158;6.766;2022-12-10T16:18:33;17.80;55.50
51815;DHT22;37874;53.158;6.766;2022-12-10T16:21:04;17.80;55.40
51815;DHT22;37874;53.158;6.766;2022-12-10T16:23:33;17.80;55.30
51815;DHT22;37874;53.158;6.766;2022-12-10T16:26:00;17.80;55.30
51815;DHT22;37874;53.158;6.766;2022-12-10T16:28:27;17.80;55.30
51815;DHT22;37874;53.158;6.766;2022-12-10T16:30:56;17.80;55.40
51815;DHT22;37874;53.158;6.766;2022-12-10T16:33:25;17.80;55.30
51815;DHT22;37874;53.158;6.766;2022-12-10T16:35:56;17.80;55.40
51815;DHT22;37874;53.158;6.766;2022-12-10T16:38:31;17.90;55.20
51815;DHT22;37874;53.158;6.766;2022-12-10T16:41:00;17.80;55.20
51815;DHT22;37874;53.158;6.766;2022-12-10T16:43:30;17.80;55.10
51815;DHT22;37874;53.158;6.766;2022-12-10T16:45:58;17.80;55.20
51815;DHT22;37874;53.158;6.766;2022-12-10T16:48:24;17.80;55.20
51815;DHT22;37874;53.158;6.766;2022-12-10T16:50:57;17.80;55.30
51815;DHT22;37874;53.158;6.766;2022-12-10T16:53:26;17.90;55.20
51815;DHT22;37874;53.158;6.766;2022-12-10T16:55:53;17.80;55.20
51815;DHT22;37874;53.158;6.766;2022-12-10T16:58:23;17.80;55.10
51815;DHT22;37874;53.158;6.766;2022-12-10T17:00:52;17.80;55.10
51815;DHT22;37874;53.158;6.766;2022-12-10T17:03:24;17.80;55.00
51815;DHT22;37874;53.158;6.766;2022-12-10T17:05:52;17.90;55.20
51815;DHT22;37874;53.158;6.766;2022-12-10T17:08:19;17.80;55.00
51815;DHT22;37874;53.158;6.766;2022-12-10T17:10:46;17.90;55.20
51815;DHT22;37874;53.158;6.766;2022-12-10T17:13:32;17.80;55.10
51815;DHT22;37874;53.158;6.766;2022-12-10T17:15:58;17.80;55.10
51815;DHT22;37874;53.158;6.766;2022-12-10T17:18:24;17.90;55.20
51815;DHT22;37874;53.158;6.766;2022-12-10T17:20:51;17.80;55.10
51815;DHT22;37874;53.158;6.766;2022-12-10T17:23:17;17.80;55.10
51815;DHT22;37874;53.158;6.766;2022-12-10T17:25:43;18.00;55.30
51815;DHT22;37874;53.158;6.766;2022-12-10T17:28:21;17.80;55.30
51815;DHT22;37874;53.158;6.766;2022-12-10T17:30:48;17.90;55.40
51815;DHT22;37874;53.158;6.766;2022-12-10T17:33:17;17.90;55.30
51815;DHT22;37874;53.158;6.766;2022-12-10T17:35:45;17.90;55.20
51815;DHT22;37874;53.158;6.766;2022-12-10T17:38:21;17.90;55.40
51815;DHT22;37874;53.158;6.766;2022-12-10T17:40:47;17.90;55.40
51815;DHT22;37874;53.158;6.766;2022-12-10T17:43:13;17.90;55.20
51815;DHT22;37874;53.158;6.766;2022-12-10T17:45:40;17.80;54.80
51815;DHT22;37874;53.158;6.766;2022-12-10T17:48:09;17.80;55.20
51815;DHT22;37874;53.158;6.766;2022-12-10T17:50:37;17.80;55.40
51815;DHT22;37874;53.158;6.766;2022-12-10T17:53:05;17.80;55.30
51815;DHT22;37874;53.158;6.766;2022-12-10T17:55:36;17.80;55.20
51815;DHT22;37874;53.158;6.766;2022-12-10T17:58:03;17.80;55.10
51815;DHT22;37874;53.158;6.766;2022-12-10T18:00:48;17.80;54.80
51815;DHT22;37874;53.158;6.766;2022-12-10T18:06:36;17.80;55.40
51815;DHT22;37874;53.158;6.766;2022-12-10T18:15:32;17.80;55.20
51815;DHT22;37874;53.158;6.766;2022-12-10T18:24:08;17.90;55.40
51815;DHT22;37874;53.158;6.766;2022-12-10T18:26:53;17.90;55.30
51815;DHT22;37874;53.158;6.766;2022-12-10T18:38:31;17.90;55.60
51815;DHT22;37874;53.158;6.766;2022-12-10T18:41:16;17.90;55.50
51815;DHT22;37874;53.158;6.766;2022-12-10T18:44:01;17.90;55.30
51815;DHT22;37874;53.158;6.766;2022-12-10T18:49:30;17.90;55.40
51815;DHT22;37874;53.158;6.766;2022-12-10T19:01:27;17.90;55.30
51815;DHT22;37874;53.158;6.766;2022-12-10T19:19:29;17.90;55.50
51815;DHT22;37874;53.158;6.766;2022-12-10T19:28:39;18.70;55.90
51815;DHT22;37874;53.158;6.766;2022-12-10T19:31:43;18.00;55.60
51815;DHT22;37874;53.158;6.766;2022-12-10T19:37:50;17.90;55.30
51815;DHT22;37874;53.158;6.766;2022-12-10T19:40:35;17.90;55.10
51815;DHT22;37874;53.158;6.766;2022-12-10T19:43:39;18.00;55.20
51815;DHT22;37874;53.158;6.766;2022-12-10T19:58:32;18.00;55.10
51815;DHT22;37874;53.158;6.766;2022-12-10T20:00:58;17.90;55.20
51815;DHT22;37874;53.158;6.766;2022-12-10T20:03:29;17.90;55.20
51815;DHT22;37874;53.158;6.766;2022-12-10T20:05:55;17.90;55.20
51815;DHT22;37874;53.158;6.766;2022-12-10T20:08:21;17.90;55.30
51815;DHT22;37874;53.158;6.766;2022-12-10T20:10:46;17.90;55.30
51815;DHT22;37874;53.158;6.766;2022-12-10T20:13:12;18.00;54.60
51815;DHT22;37874;53.158;6.766;2022-12-10T20:15:38;17.90;54.90
51815;DHT22;37874;53.158;6.766;2022-12-10T20:18:04;17.90;55.10
51815;DHT22;37874;53.158;6.766;2022-12-10T20:20:30;17.90;54.90
51815;DHT22;37874;53.158;6.766;2022-12-10T20:22:56;17.90;55.10
51815;DHT22;37874;53.158;6.766;2022-12-10T20:25:22;18.00;54.80
51815;DHT22;37874;53.158;6.766;2022-12-10T20:27:49;17.90;55.30
51815;DHT22;37874;53.158;6.766;2022-12-10T20:30:21;17.90;55.20
51815;DHT22;37874;53.158;6.766;2022-12-10T20:32:50;18.00;55.20
51815;DHT22;37874;53.158;6.766;2022-12-10T20:35:17;17.90;55.10
51815;DHT22;37874;53.158;6.766;2022-12-10T20:37:44;17.90;55.10
51815;DHT22;37874;53.158;6.766;2022-12-10T20:40:15;17.90;54.30
51815;DHT22;37874;53.158;6.766;2022-12-10T20:42:44;17.90;55.10
51815;DHT22;37874;53.158;6.766;2022-12-10T20:45:11;17.90;55.10
51815;DHT22;37874;53.158;6.766;2022-12-10T20:47:36;17.90;55.20
51815;DHT22;37874;53.158;6.766;2022-12-10T20:50:03;17.90;54.50
51815;DHT22;37874;53.158;6.766;2022-12-10T20:52:34;17.90;55.00
51815;DHT22;37874;53.158;6.766;2022-12-10T20:55:02;18.00;54.80
51815;DHT22;37874;53.158;6.766;2022-12-10T20:57:28;18.00;55.10
51815;DHT22;37874;53.158;6.766;2022-12-10T20:59:54;18.00;54.70
51815;DHT22;37874;53.158;6.766;2022-12-10T21:02:20;18.00;54.60
51815;DHT22;37874;53.158;6.766;2022-12-10T21:04:46;18.00;54.50
51815;DHT22;37874;53.158;6.766;2022-12-10T21:07:14;18.00;54.80
51815;DHT22;37874;53.158;6.766;2022-12-10T21:09:41;18.00;54.70
51815;DHT22;37874;53.158;6.766;2022-12-10T21:12:07;17.90;54.70
51815;DHT22;37874;53.158;6.766;2022-12-10T21:14:33;17.90;54.70
51815;DHT22;37874;53.158;6.766;2022-12-10T21:17:00;17.90;55.20
51815;DHT22;37874;53.158;6.766;2022-12-10T21:19:26;18.00;55.20
51815;DHT22;37874;53.158;6.766;2022-12-10T21:21:52;17.90;55.40
51815;DHT22;37874;53.158;6.766;2022-12-10T21:24:18;18.00;55.50
51815;DHT22;37874;53.158;6.766;2022-12-10T21:26:44;18.00;55.40
51815;DHT22;37874;53.158;6.766;2022-12-10T21:29:10;18.00;55.30
51815;DHT22;37874;53.158;6.766;2022-12-10T21:31:36;18.00;55.00
51815;DHT22;37874;53.158;6.766;2022-12-10T21:34:02;18.00;55.50
51815;DHT22;37874;53.158;6.766;2022-12-10T21:36:28;18.00;55.40